createdAt,value
2023-11-24T00:00:23.823Z,6.86
2023-11-24T00:05:26.222Z,6.89
2023-11-24T00:10:29.884Z,6.90
2023-11-24T00:15:31.955Z,6.91
2023-11-24T00:20:33.978Z,6.81
2023-11-24T00:25:35.416Z,6.92
2023-11-24T00:30:36.988Z,6.84
2023-11-24T00:35:38.530Z,6.83
2023-11-24T00:40:43.059Z,6.95
2023-11-24T00:45:44.604Z,6.90
2023-11-24T00:50:46.141Z,6.86
2023-11-24T00:55:47.846Z,6.88
2023-11-24T01:00:49.507Z,6.76
2023-11-24T01:05:51.263Z,6.65
2023-11-24T01:10:57.697Z,6.50
2023-11-24T01:15:59.479Z,6.36
2023-11-24T01:21:01.027Z,6.24
2023-11-24T01:26:04.219Z,6.28
2023-11-24T01:31:06.360Z,6.02
2023-11-24T01:36:08.806Z,6.18
2023-11-24T01:41:10.369Z,6.16
2023-11-24T01:46:12.020Z,6.11
2023-11-24T01:51:13.587Z,6.22
2023-11-24T01:56:15.301Z,6.19
2023-11-24T02:01:17.264Z,6.22
2023-11-24T02:06:19.260Z,6.22
2023-11-24T02:11:21.040Z,6.30
2023-11-24T02:16:22.631Z,6.30
2023-11-24T02:21:24.364Z,6.33
2023-11-24T02:26:27.289Z,6.36
2023-11-24T02:31:28.900Z,6.33
2023-11-24T02:36:32.031Z,6.33
2023-11-24T02:41:33.665Z,6.34
2023-11-24T02:46:35.197Z,6.36
2023-11-24T02:51:36.773Z,6.28
2023-11-24T02:56:38.689Z,6.25
2023-11-24T03:01:42.338Z,6.30
2023-11-24T03:06:44.214Z,6.33
2023-11-24T03:11:45.772Z,6.02
2023-11-24T03:16:48.441Z,5.98
2023-11-24T03:21:50.052Z,6.04
2023-11-24T03:26:51.690Z,5.92
2023-11-24T03:31:53.181Z,6.15
2023-11-24T03:36:54.698Z,6.23
2023-11-24T03:41:57.465Z,6.11
2023-11-24T03:46:59.073Z,6.12
2023-11-24T03:52:00.934Z,5.93
2023-11-24T03:57:02.508Z,5.99
2023-11-24T04:02:04.410Z,6.00
2023-11-24T04:07:06.002Z,5.85
2023-11-24T04:12:07.581Z,5.92
2023-11-24T04:17:10.758Z,5.89
2023-11-24T04:22:12.274Z,5.93
2023-11-24T04:27:13.757Z,5.90
2023-11-24T04:32:15.284Z,5.89
2023-11-24T04:37:19.240Z,5.89
2023-11-24T04:42:21.631Z,5.82
2023-11-24T04:47:23.235Z,5.87
2023-11-24T04:52:24.756Z,5.92
2023-11-24T04:57:26.227Z,5.89
2023-11-24T05:02:31.237Z,5.88
2023-11-24T05:07:32.810Z,5.80
2023-11-24T05:12:36.027Z,5.86
2023-11-24T05:17:37.655Z,5.78
2023-11-24T05:22:40.520Z,5.91
2023-11-24T05:27:42.071Z,5.87
2023-11-24T05:32:45.526Z,5.88
2023-11-24T05:37:47.467Z,5.82
2023-11-24T05:42:49.169Z,5.60
2023-11-24T05:47:50.701Z,5.70
2023-11-24T05:52:52.226Z,5.64
2023-11-24T05:57:53.792Z,5.62
2023-11-24T06:02:55.283Z,5.68
2023-11-24T06:07:59.113Z,5.70
2023-11-24T06:13:00.704Z,5.65
2023-11-24T06:18:02.276Z,5.71
2023-11-24T06:23:04.892Z,5.53
2023-11-24T06:28:06.989Z,5.48
2023-11-24T06:33:08.515Z,5.50
2023-11-24T06:38:10.083Z,5.40
2023-11-24T06:43:11.692Z,5.45
2023-11-24T06:48:13.302Z,5.26
2023-11-24T06:53:14.798Z,5.14
2023-11-24T06:58:16.323Z,5.36
2023-11-24T07:03:18.964Z,5.26
2023-11-24T07:08:21.148Z,5.19
2023-11-24T07:13:22.665Z,5.19
2023-11-24T07:18:24.415Z,5.03
2023-11-24T07:23:26.120Z,5.06
2023-11-24T07:28:27.592Z,5.16
2023-11-24T07:33:29.123Z,4.07
2023-11-24T07:38:31.027Z,3.58
2023-11-24T07:43:35.529Z,3.51
2023-11-24T07:48:38.073Z,3.82
2023-11-24T07:53:39.580Z,3.48
2023-11-24T07:58:41.202Z,3.69
2023-11-24T08:03:42.803Z,3.54
2023-11-24T08:08:44.392Z,3.92
2023-11-24T08:13:46.074Z,3.36
2023-11-24T08:18:49.557Z,3.05
2023-11-24T08:23:52.650Z,2.29
2023-11-24T08:28:54.314Z,2.30
2023-11-24T08:33:55.826Z,2.63
2023-11-24T08:38:57.342Z,2.55
2023-11-24T08:43:58.821Z,2.03
2023-11-24T08:49:00.347Z,2.03
2023-11-24T08:54:01.902Z,2.40
2023-11-24T08:59:09.629Z,2.29
2023-11-24T09:04:11.489Z,2.17
2023-11-24T09:09:13.706Z,2.23
2023-11-24T09:14:15.694Z,1.70
2023-11-24T09:19:18.344Z,1.52
2023-11-24T09:24:19.951Z,1.65
2023-11-24T09:29:21.584Z,2.05
2023-11-24T09:34:26.028Z,1.85
2023-11-24T09:39:29.359Z,2.56
2023-11-24T09:44:30.983Z,2.35
2023-11-24T09:49:32.531Z,2.50
2023-11-24T09:54:34.061Z,2.41
2023-11-24T09:59:35.587Z,1.93
2023-11-24T10:04:37.134Z,2.76
2023-11-24T10:09:39.729Z,2.64
2023-11-24T10:14:44.563Z,3.10
2023-11-24T10:19:46.082Z,3.07
2023-11-24T10:24:48.724Z,3.04
2023-11-24T10:29:51.363Z,2.83
2023-11-24T10:34:53.080Z,3.48
2023-11-24T10:40:00.087Z,3.95
2023-11-24T10:45:09.028Z,3.72
2023-11-24T10:50:17.381Z,3.36
2023-11-24T10:55:19.015Z,3.75
2023-11-24T11:00:21.802Z,3.45
2023-11-24T11:05:42.083Z,3.26
2023-11-24T11:10:47.396Z,3.37
2023-11-24T11:15:52.142Z,3.09
2023-11-24T11:20:53.756Z,3.36
2023-11-24T11:25:55.269Z,2.93
2023-11-24T11:30:58.711Z,2.92
2023-11-24T11:36:06.795Z,3.57
2023-11-24T11:41:10.307Z,3.27
2023-11-24T11:46:11.911Z,3.28
2023-11-24T11:51:17.710Z,2.95
2023-11-24T11:56:21.974Z,2.98
2023-11-24T12:01:23.601Z,2.89
2023-11-24T12:06:25.748Z,2.73
2023-11-24T12:11:27.935Z,3.06
2023-11-24T12:16:33.706Z,3.18
2023-11-24T12:21:36.789Z,3.62
2023-11-24T12:26:42.199Z,3.83
2023-11-24T12:31:43.931Z,4.23
2023-11-24T12:36:46.444Z,4.36
2023-11-24T12:41:47.991Z,4.35
2023-11-24T12:46:49.769Z,4.56
2023-11-24T12:51:51.484Z,4.35
2023-11-24T12:56:54.532Z,4.25
2023-11-24T13:01:56.161Z,3.98
2023-11-24T13:06:59.165Z,4.16
2023-11-24T13:12:15.954Z,3.83
2023-11-24T13:17:21.926Z,3.48
2023-11-24T13:22:23.527Z,3.49
2023-11-24T13:27:25.608Z,3.56
2023-11-24T13:32:27.454Z,3.47
2023-11-24T13:37:31.544Z,3.57
2023-11-24T13:42:35.316Z,3.83
2023-11-24T13:47:36.925Z,3.27
2023-11-24T13:52:38.809Z,3.69
2023-11-24T13:57:40.776Z,3.39
2023-11-24T14:02:42.573Z,3.14
2023-11-24T14:07:46.199Z,3.22
2023-11-24T14:12:49.270Z,3.39
2023-11-24T14:17:51.480Z,3.08
2023-11-24T14:22:54.058Z,3.00
2023-11-24T14:27:55.874Z,3.32
2023-11-24T14:33:00.493Z,3.38
2023-11-24T14:38:02.734Z,3.27
2023-11-24T14:43:04.624Z,3.25
2023-11-24T14:48:06.995Z,3.30
2023-11-24T14:53:10.062Z,3.23
2023-11-24T14:58:12.770Z,3.13
2023-11-24T15:03:18.498Z,2.96
2023-11-24T15:08:20.359Z,2.96
2023-11-24T15:13:22.910Z,3.02
2023-11-24T15:18:26.456Z,3.12
2023-11-24T15:23:28.849Z,2.99
2023-11-24T15:28:34.655Z,2.81
2023-11-24T15:33:36.445Z,2.95
2023-11-24T15:38:37.939Z,2.97
2023-11-24T15:43:39.415Z,3.20
2023-11-24T15:48:41.016Z,3.13
2023-11-24T15:53:42.566Z,2.96
2023-11-24T15:58:45.862Z,2.99
2023-11-24T16:03:47.467Z,2.69
2023-11-24T16:08:55.719Z,2.68
2023-11-24T16:14:00.286Z,2.65
2023-11-24T16:19:01.821Z,2.43
2023-11-24T16:24:03.706Z,2.18
2023-11-24T16:29:05.180Z,2.16
2023-11-24T16:34:06.720Z,2.21
2023-11-24T16:39:12.761Z,2.22
2023-11-24T16:44:14.303Z,1.90
2023-11-24T16:49:15.862Z,1.86
2023-11-24T16:54:17.367Z,2.16
2023-11-24T16:59:21.316Z,2.09
2023-11-24T17:04:22.933Z,2.18
2023-11-24T17:09:24.423Z,2.23
2023-11-24T17:14:29.411Z,2.24
2023-11-24T17:19:32.122Z,2.13
2023-11-24T17:24:34.177Z,2.16
2023-11-24T17:29:35.697Z,2.65
2023-11-24T17:34:37.973Z,2.55
2023-11-24T17:39:41.179Z,2.43
2023-11-24T17:44:42.685Z,2.21
2023-11-24T17:49:44.151Z,2.47
2023-11-24T17:54:45.630Z,2.39
2023-11-24T17:59:47.104Z,2.47
2023-11-24T18:04:48.578Z,2.65
2023-11-24T18:09:50.123Z,2.50
2023-11-24T18:14:51.694Z,2.68
2023-11-24T18:19:55.900Z,2.29
2023-11-24T18:24:59.329Z,2.22
2023-11-24T18:30:01.023Z,2.35
2023-11-24T18:35:02.553Z,2.39
2023-11-24T18:40:06.565Z,2.34
2023-11-24T18:45:09.890Z,2.32
2023-11-24T18:50:11.483Z,2.18
2023-11-24T18:55:13.466Z,2.22
2023-11-24T19:00:19.984Z,2.18
2023-11-24T19:05:22.040Z,2.25
2023-11-24T19:10:23.675Z,1.94
2023-11-24T19:15:25.193Z,2.08
2023-11-24T19:20:26.786Z,1.92
2023-11-24T19:25:28.373Z,1.81
2023-11-24T19:30:29.879Z,1.92
2023-11-24T19:35:31.390Z,1.92
2023-11-24T19:40:32.942Z,2.05
2023-11-24T19:45:34.657Z,2.23
2023-11-24T19:50:36.171Z,2.25
2023-11-24T19:55:37.725Z,2.25
2023-11-24T20:00:39.790Z,2.47
2023-11-24T20:05:41.985Z,2.42
2023-11-24T20:10:43.482Z,2.44
2023-11-24T20:15:45.105Z,2.45
2023-11-24T20:20:47.852Z,2.23
2023-11-24T20:25:49.481Z,2.41
2023-11-24T20:30:51.053Z,2.53
2023-11-24T20:35:52.537Z,2.11
2023-11-24T20:40:55.994Z,2.38
2023-11-24T20:45:57.710Z,2.48
2023-11-24T20:50:59.484Z,2.35
2023-11-24T20:56:00.952Z,2.31
2023-11-24T21:01:02.532Z,2.24
2023-11-24T21:06:04.443Z,2.24
2023-11-24T21:11:06.034Z,2.18
2023-11-24T21:16:07.913Z,2.39
2023-11-24T21:21:10.068Z,2.32
2023-11-24T21:26:11.964Z,2.30
2023-11-24T21:31:14.868Z,2.20
2023-11-24T21:36:16.916Z,2.20
2023-11-24T21:41:20.679Z,2.45
2023-11-24T21:46:23.141Z,2.17
2023-11-24T21:51:24.881Z,2.23
2023-11-24T21:56:27.305Z,2.35
2023-11-24T22:01:28.986Z,2.20
2023-11-24T22:06:35.455Z,2.39
2023-11-24T22:11:37.002Z,2.36
2023-11-24T22:16:38.600Z,2.53
2023-11-24T22:21:40.367Z,2.46
2023-11-24T22:26:43.050Z,2.33
2023-11-24T22:31:45.190Z,2.37
2023-11-24T22:36:46.701Z,2.52
2023-11-24T22:41:48.835Z,2.55
2023-11-24T22:46:50.611Z,2.50
2023-11-24T22:51:52.116Z,2.41
2023-11-24T22:56:53.587Z,2.67
2023-11-24T23:01:55.984Z,2.49
2023-11-24T23:06:57.744Z,2.52
2023-11-24T23:11:59.313Z,2.67
2023-11-24T23:17:01.538Z,2.53
2023-11-24T23:22:07.505Z,2.46
2023-11-24T23:27:09.242Z,2.30
2023-11-24T23:32:10.775Z,2.57
2023-11-24T23:37:12.325Z,2.60
2023-11-24T23:42:13.920Z,2.12
2023-11-24T23:47:15.887Z,2.16
2023-11-24T23:52:17.462Z,1.88
2023-11-24T23:57:19.050Z,1.93
